sensor_id;sensor_type;location;lat;lon;timestamp;temperature;humidity
1978;DHT22;989;53.016;8.346;2022-12-18T00:01:19;-5.80;98.40
1978;DHT22;989;53.016;8.346;2022-12-18T00:03:48;-5.90;98.60
1978;DHT22;989;53.016;8.346;2022-12-18T00:06:15;-5.90;98.70
1978;DHT22;989;53.016;8.346;2022-12-18T00:08:43;-5.90;99.50
1978;DHT22;989;53.016;8.346;2022-12-18T00:11:14;-5.90;99.90
1978;DHT22;989;53.016;8.346;2022-12-18T00:13:45;-5.90;98.10
1978;DHT22;989;53.016;8.346;2022-12-18T00:16:13;-5.90;98.10
1978;DHT22;989;53.016;8.346;2022-12-18T00:18:45;-5.80;97.80
1978;DHT22;989;53.016;8.346;2022-12-18T00:21:12;-5.90;97.50
1978;DHT22;989;53.016;8.346;2022-12-18T00:23:39;-5.90;97.40
1978;DHT22;989;53.016;8.346;2022-12-18T00:26:09;-5.90;96.00
1978;DHT22;989;53.016;8.346;2022-12-18T00:28:42;-6.00;95.00
1978;DHT22;989;53.016;8.346;2022-12-18T00:31:15;-6.00;95.20
1978;DHT22;989;53.016;8.346;2022-12-18T00:33:43;-6.00;95.30
1978;DHT22;989;53.016;8.346;2022-12-18T00:36:13;-6.00;94.80
1978;DHT22;989;53.016;8.346;2022-12-18T00:38:40;-6.10;93.00
1978;DHT22;989;53.016;8.346;2022-12-18T00:41:07;-6.10;93.80
1978;DHT22;989;53.016;8.346;2022-12-18T00:43:35;-6.20;94.00
1978;DHT22;989;53.016;8.346;2022-12-18T00:46:01;-6.20;94.60
1978;DHT22;989;53.016;8.346;2022-12-18T00:48:27;-6.10;95.00
1978;DHT22;989;53.016;8.346;2022-12-18T00:50:53;-6.00;96.30
1978;DHT22;989;53.016;8.346;2022-12-18T00:53:18;-5.90;96.40
1978;DHT22;989;53.016;8.346;2022-12-18T00:55:45;-5.80;96.80
1978;DHT22;989;53.016;8.346;2022-12-18T00:58:13;-5.70;97.10
1978;DHT22;989;53.016;8.346;2022-12-18T01:00:41;-5.70;96.10
1978;DHT22;989;53.016;8.346;2022-12-18T01:03:07;-5.90;94.70
1978;DHT22;989;53.016;8.346;2022-12-18T01:05:33;-6.00;94.10
1978;DHT22;989;53.016;8.346;2022-12-18T01:07:59;-6.00;94.40
1978;DHT22;989;53.016;8.346;2022-12-18T01:10:25;-6.00;95.50
1978;DHT22;989;53.016;8.346;2022-12-18T01:12:51;-5.90;97.20
1978;DHT22;989;53.016;8.346;2022-12-18T01:15:18;-5.80;97.80
1978;DHT22;989;53.016;8.346;2022-12-18T01:17:45;-5.70;96.60
1978;DHT22;989;53.016;8.346;2022-12-18T01:20:12;-5.70;96.50
1978;DHT22;989;53.016;8.346;2022-12-18T01:22:38;-5.70;95.90
1978;DHT22;989;53.016;8.346;2022-12-18T01:25:04;-5.80;94.20
1978;DHT22;989;53.016;8.346;2022-12-18T01:27:32;-5.90;93.50
1978;DHT22;989;53.016;8.346;2022-12-18T01:29:58;-6.00;92.10
1978;DHT22;989;53.016;8.346;2022-12-18T01:32:24;-6.00;92.00
1978;DHT22;989;53.016;8.346;2022-12-18T01:34:50;-6.00;93.70
1978;DHT22;989;53.016;8.346;2022-12-18T01:37:15;-6.00;93.00
1978;DHT22;989;53.016;8.346;2022-12-18T01:39:41;-5.90;94.00
1978;DHT22;989;53.016;8.346;2022-12-18T01:42:14;-5.90;94.90
1978;DHT22;989;53.016;8.346;2022-12-18T01:47:39;-6.00;92.50
1978;DHT22;989;53.016;8.346;2022-12-18T01:53:11;-6.20;91.80
1978;DHT22;989;53.016;8.346;2022-12-18T01:55:46;-6.20;91.80
1978;DHT22;989;53.016;8.346;2022-12-18T01:58:17;-6.20;93.80
1978;DHT22;989;53.016;8.346;2022-12-18T02:00:44;-6.00;95.30
1978;DHT22;989;53.016;8.346;2022-12-18T02:03:10;-6.00;94.90
1978;DHT22;989;53.016;8.346;2022-12-18T02:14:38;-6.40;91.70
1978;DHT22;989;53.016;8.346;2022-12-18T02:17:28;-6.40;91.50
1978;DHT22;989;53.016;8.346;2022-12-18T02:23:21;-6.40;91.90
1978;DHT22;989;53.016;8.346;2022-12-18T02:25:59;-6.40;94.10
1978;DHT22;989;53.016;8.346;2022-12-18T02:28:44;-6.20;95.20
1978;DHT22;989;53.016;8.346;2022-12-18T02:31:20;-6.20;95.30
1978;DHT22;989;53.016;8.346;2022-12-18T02:33:51;-6.10;95.50
1978;DHT22;989;53.016;8.346;2022-12-18T02:36:21;-6.10;95.30
1978;DHT22;989;53.016;8.346;2022-12-18T02:38:48;-6.20;93.70
1978;DHT22;989;53.016;8.346;2022-12-18T02:41:16;-6.30;92.10
1978;DHT22;989;53.016;8.346;2022-12-18T02:43:53;-6.40;91.50
1978;DHT22;989;53.016;8.346;2022-12-18T02:46:43;-6.40;91.90
1978;DHT22;989;53.016;8.346;2022-12-18T02:49:28;-6.30;93.50
1978;DHT22;989;53.016;8.346;2022-12-18T02:57:40;-6.10;93.80
1978;DHT22;989;53.016;8.346;2022-12-18T03:00:23;-6.20;91.30
1978;DHT22;989;53.016;8.346;2022-12-18T03:03:05;-6.20;91.30
1978;DHT22;989;53.016;8.346;2022-12-18T03:05:51;-6.20;90.70
1978;DHT22;989;53.016;8.346;2022-12-18T03:08:22;-6.40;89.80
1978;DHT22;989;53.016;8.346;2022-12-18T03:11:00;-6.30;91.20
1978;DHT22;989;53.016;8.346;2022-12-18T03:14:07;-6.30;90.60
1978;DHT22;989;53.016;8.346;2022-12-18T03:16:34;-6.20;91.70
1978;DHT22;989;53.016;8.346;2022-12-18T03:19:04;-6.10;93.70
1978;DHT22;989;53.016;8.346;2022-12-18T03:21:47;-6.00;93.90
1978;DHT22;989;53.016;8.346;2022-12-18T03:24:16;-6.10;93.90
1978;DHT22;989;53.016;8.346;2022-12-18T03:26:44;-6.00;94.80
1978;DHT22;989;53.016;8.346;2022-12-18T03:29:27;-6.00;94.40
1978;DHT22;989;53.016;8.346;2022-12-18T03:32:04;-6.00;94.90
1978;DHT22;989;53.016;8.346;2022-12-18T03:34:34;-6.00;94.20
1978;DHT22;989;53.016;8.346;2022-12-18T03:37:03;-6.10;93.30
1978;DHT22;989;53.016;8.346;2022-12-18T03:39:29;-6.10;93.10
1978;DHT22;989;53.016;8.346;2022-12-18T03:42:03;-6.10;93.40
1978;DHT22;989;53.016;8.346;2022-12-18T03:44:50;-6.10;94.60
1978;DHT22;989;53.016;8.346;2022-12-18T03:47:52;-6.00;95.20
1978;DHT22;989;53.016;8.346;2022-12-18T03:50:56;-5.90;95.90
1978;DHT22;989;53.016;8.346;2022-12-18T03:53:43;-5.80;95.00
1978;DHT22;989;53.016;8.346;2022-12-18T03:56:13;-5.80;95.30
1978;DHT22;989;53.016;8.346;2022-12-18T03:58:40;-5.70;95.30
1978;DHT22;989;53.016;8.346;2022-12-18T04:01:08;-5.70;94.40
1978;DHT22;989;53.016;8.346;2022-12-18T04:03:35;-5.80;94.20
1978;DHT22;989;53.016;8.346;2022-12-18T04:06:02;-5.80;94.10
1978;DHT22;989;53.016;8.346;2022-12-18T04:08:29;-5.80;94.10
1978;DHT22;989;53.016;8.346;2022-12-18T04:10:55;-5.80;93.90
1978;DHT22;989;53.016;8.346;2022-12-18T04:13:27;-5.70;95.00
1978;DHT22;989;53.016;8.346;2022-12-18T04:15:54;-5.70;94.20
1978;DHT22;989;53.016;8.346;2022-12-18T04:18:20;-5.70;94.00
1978;DHT22;989;53.016;8.346;2022-12-18T04:20:46;-5.80;92.90
1978;DHT22;989;53.016;8.346;2022-12-18T04:23:11;-5.90;92.40
1978;DHT22;989;53.016;8.346;2022-12-18T04:25:37;-5.90;92.70
1978;DHT22;989;53.016;8.346;2022-12-18T04:28:03;-5.90;92.50
1978;DHT22;989;53.016;8.346;2022-12-18T04:30:28;-5.90;92.00
1978;DHT22;989;53.016;8.346;2022-12-18T04:32:54;-5.90;93.20
1978;DHT22;989;53.016;8.346;2022-12-18T04:35:20;-5.90;92.50
1978;DHT22;989;53.016;8.346;2022-12-18T04:37:45;-5.90;93.10
1978;DHT22;989;53.016;8.346;2022-12-18T04:40:11;-5.90;92.60
1978;DHT22;989;53.016;8.346;2022-12-18T04:42:39;-6.00;90.90
1978;DHT22;989;53.016;8.346;2022-12-18T04:45:06;-6.10;90.70
1978;DHT22;989;53.016;8.346;2022-12-18T04:47:33;-6.10;90.30
1978;DHT22;989;53.016;8.346;2022-12-18T04:49:58;-6.20;90.20
1978;DHT22;989;53.016;8.346;2022-12-18T04:52:24;-6.30;90.20
1978;DHT22;989;53.016;8.346;2022-12-18T04:54:50;-6.30;89.40
1978;DHT22;989;53.016;8.346;2022-12-18T04:57:16;-6.40;88.90
1978;DHT22;989;53.016;8.346;2022-12-18T04:59:43;-6.40;88.80
1978;DHT22;989;53.016;8.346;2022-12-18T05:02:10;-6.40;90.20
1978;DHT22;989;53.016;8.346;2022-12-18T05:04:35;-6.40;87.90
1978;DHT22;989;53.016;8.346;2022-12-18T05:07:01;-6.40;89.30
1978;DHT22;989;53.016;8.346;2022-12-18T05:09:27;-6.30;87.90
1978;DHT22;989;53.016;8.346;2022-12-18T05:11:52;-6.30;87.90
1978;DHT22;989;53.016;8.346;2022-12-18T05:14:19;-6.30;88.00
1978;DHT22;989;53.016;8.346;2022-12-18T05:16:44;-6.30;88.90
1978;DHT22;989;53.016;8.346;2022-12-18T05:19:10;-6.30;88.70
1978;DHT22;989;53.016;8.346;2022-12-18T05:21:36;-6.30;90.20
1978;DHT22;989;53.016;8.346;2022-12-18T05:24:02;-6.30;90.70
1978;DHT22;989;53.016;8.346;2022-12-18T05:26:27;-6.20;90.00
1978;DHT22;989;53.016;8.346;2022-12-18T05:28:53;-6.30;87.20
1978;DHT22;989;53.016;8.346;2022-12-18T05:31:19;-6.30;88.90
1978;DHT22;989;53.016;8.346;2022-12-18T05:33:44;-6.30;86.80
1978;DHT22;989;53.016;8.346;2022-12-18T05:36:10;-6.30;86.80
1978;DHT22;989;53.016;8.346;2022-12-18T05:38:38;-6.30;88.80
1978;DHT22;989;53.016;8.346;2022-12-18T05:41:05;-6.20;88.20
1978;DHT22;989;53.016;8.346;2022-12-18T05:43:34;-6.30;88.00
1978;DHT22;989;53.016;8.346;2022-12-18T05:46:11;-6.30;88.20
1978;DHT22;989;53.016;8.346;2022-12-18T05:48:39;-6.30;86.60
1978;DHT22;989;53.016;8.346;2022-12-18T05:51:07;-6.20;87.30
1978;DHT22;989;53.016;8.346;2022-12-18T05:53:35;-6.10;89.70
1978;DHT22;989;53.016;8.346;2022-12-18T05:56:03;-6.00;90.50
1978;DHT22;989;53.016;8.346;2022-12-18T05:58:31;-5.90;92.00
1978;DHT22;989;53.016;8.346;2022-12-18T06:00:57;-5.80;92.10
1978;DHT22;989;53.016;8.346;2022-12-18T06:03:23;-5.80;90.80
1978;DHT22;989;53.016;8.346;2022-12-18T06:05:49;-5.90;89.50
1978;DHT22;989;53.016;8.346;2022-12-18T06:08:14;-5.90;89.40
1978;DHT22;989;53.016;8.346;2022-12-18T06:10:41;-5.90;89.10
1978;DHT22;989;53.016;8.346;2022-12-18T06:13:07;-5.90;88.90
1978;DHT22;989;53.016;8.346;2022-12-18T06:15:35;-5.90;89.20
1978;DHT22;989;53.016;8.346;2022-12-18T06:18:01;-5.90;88.60
1978;DHT22;989;53.016;8.346;2022-12-18T06:20:27;-5.90;89.40
1978;DHT22;989;53.016;8.346;2022-12-18T06:22:55;-5.80;89.60
1978;DHT22;989;53.016;8.346;2022-12-18T06:25:21;-5.70;89.00
1978;DHT22;989;53.016;8.346;2022-12-18T06:27:47;-5.70;89.70
1978;DHT22;989;53.016;8.346;2022-12-18T06:30:13;-5.70;89.40
1978;DHT22;989;53.016;8.346;2022-12-18T06:32:39;-5.60;89.40
1978;DHT22;989;53.016;8.346;2022-12-18T06:35:05;-5.60;89.00
1978;DHT22;989;53.016;8.346;2022-12-18T06:37:32;-5.70;87.40
1978;DHT22;989;53.016;8.346;2022-12-18T06:39:57;-5.80;85.60
1978;DHT22;989;53.016;8.346;2022-12-18T06:42:25;-5.90;82.70
1978;DHT22;989;53.016;8.346;2022-12-18T06:44:50;-5.90;82.90
1978;DHT22;989;53.016;8.346;2022-12-18T06:47:16;-5.90;80.70
1978;DHT22;989;53.016;8.346;2022-12-18T06:49:42;-5.90;80.00
1978;DHT22;989;53.016;8.346;2022-12-18T06:52:08;-5.90;79.10
1978;DHT22;989;53.016;8.346;2022-12-18T06:54:34;-6.00;78.90
1978;DHT22;989;53.016;8.346;2022-12-18T06:56:59;-5.90;80.00
1978;DHT22;989;53.016;8.346;2022-12-18T06:59:25;-5.90;82.40
1978;DHT22;989;53.016;8.346;2022-12-18T07:01:51;-5.80;82.30
1978;DHT22;989;53.016;8.346;2022-12-18T07:04:17;-5.70;84.70
1978;DHT22;989;53.016;8.346;2022-12-18T07:06:42;-5.70;84.90
1978;DHT22;989;53.016;8.346;2022-12-18T07:09:08;-5.70;84.20
1978;DHT22;989;53.016;8.346;2022-12-18T07:11:34;-5.70;84.30
1978;DHT22;989;53.016;8.346;2022-12-18T07:13:59;-5.60;86.30
1978;DHT22;989;53.016;8.346;2022-12-18T07:16:25;-5.60;84.70
1978;DHT22;989;53.016;8.346;2022-12-18T07:18:52;-5.60;87.40
1978;DHT22;989;53.016;8.346;2022-12-18T07:21:19;-5.50;86.50
1978;DHT22;989;53.016;8.346;2022-12-18T07:23:45;-5.50;86.70
1978;DHT22;989;53.016;8.346;2022-12-18T07:26:14;-5.50;86.60
1978;DHT22;989;53.016;8.346;2022-12-18T07:28:41;-5.50;86.00
1978;DHT22;989;53.016;8.346;2022-12-18T07:31:10;-5.40;86.80
1978;DHT22;989;53.016;8.346;2022-12-18T07:33:37;-5.40;86.60
1978;DHT22;989;53.016;8.346;2022-12-18T07:36:05;-5.40;86.70
1978;DHT22;989;53.016;8.346;2022-12-18T07:38:33;-5.40;85.70
1978;DHT22;989;53.016;8.346;2022-12-18T07:41:09;-5.40;85.00
1978;DHT22;989;53.016;8.346;2022-12-18T07:43:38;-5.40;84.20
1978;DHT22;989;53.016;8.346;2022-12-18T07:46:05;-5.40;84.90
1978;DHT22;989;53.016;8.346;2022-12-18T07:48:33;-5.30;86.10
1978;DHT22;989;53.016;8.346;2022-12-18T07:51:00;-5.30;86.10
1978;DHT22;989;53.016;8.346;2022-12-18T07:53:27;-5.30;84.60
1978;DHT22;989;53.016;8.346;2022-12-18T07:56:00;-5.20;85.30
1978;DHT22;989;53.016;8.346;2022-12-18T07:58:28;-5.10;86.60
1978;DHT22;989;53.016;8.346;2022-12-18T08:01:01;-5.00;85.50
1978;DHT22;989;53.016;8.346;2022-12-18T08:03:31;-5.00;84.50
1978;DHT22;989;53.016;8.346;2022-12-18T08:06:01;-5.00;83.50
1978;DHT22;989;53.016;8.346;2022-12-18T08:08:28;-4.90;83.10
1978;DHT22;989;53.016;8.346;2022-12-18T08:10:54;-4.90;83.30
1978;DHT22;989;53.016;8.346;2022-12-18T08:13:20;-4.90;82.60
1978;DHT22;989;53.016;8.346;2022-12-18T08:15:46;-4.80;84.70
1978;DHT22;989;53.016;8.346;2022-12-18T08:18:12;-4.70;84.70
1978;DHT22;989;53.016;8.346;2022-12-18T08:20:37;-4.60;85.20
1978;DHT22;989;53.016;8.346;2022-12-18T08:23:03;-4.50;84.50
1978;DHT22;989;53.016;8.346;2022-12-18T08:25:29;-4.40;83.60
1978;DHT22;989;53.016;8.346;2022-12-18T08:27:54;-4.40;83.10
1978;DHT22;989;53.016;8.346;2022-12-18T08:30:21;-4.30;83.70
1978;DHT22;989;53.016;8.346;2022-12-18T08:32:51;-4.30;82.80
1978;DHT22;989;53.016;8.346;2022-12-18T08:35:18;-4.20;84.50
1978;DHT22;989;53.016;8.346;2022-12-18T08:37:43;-4.20;82.40
1978;DHT22;989;53.016;8.346;2022-12-18T08:40:09;-4.10;81.40
1978;DHT22;989;53.016;8.346;2022-12-18T08:42:35;-4.00;80.60
1978;DHT22;989;53.016;8.346;2022-12-18T08:45:20;-3.90;78.40
1978;DHT22;989;53.016;8.346;2022-12-18T08:47:45;-3.80;76.60
1978;DHT22;989;53.016;8.346;2022-12-18T08:50:11;-3.70;75.70
1978;DHT22;989;53.016;8.346;2022-12-18T08:52:37;-3.70;74.20
1978;DHT22;989;53.016;8.346;2022-12-18T08:55:03;-3.70;72.20
1978;DHT22;989;53.016;8.346;2022-12-18T08:57:29;-3.70;70.60
1978;DHT22;989;53.016;8.346;2022-12-18T08:59:55;-3.70;71.20
1978;DHT22;989;53.016;8.346;2022-12-18T09:02:21;-3.60;72.60
1978;DHT22;989;53.016;8.346;2022-12-18T09:04:47;-3.50;73.60
1978;DHT22;989;53.016;8.346;2022-12-18T09:07:13;-3.50;70.80
1978;DHT22;989;53.016;8.346;2022-12-18T09:09:38;-3.50;69.60
1978;DHT22;989;53.016;8.346;2022-12-18T09:12:04;-3.50;72.70
1978;DHT22;989;53.016;8.346;2022-12-18T09:14:30;-3.40;72.00
1978;DHT22;989;53.016;8.346;2022-12-18T09:16:55;-3.40;73.60
1978;DHT22;989;53.016;8.346;2022-12-18T09:19:21;-3.30;74.90
1978;DHT22;989;53.016;8.346;2022-12-18T09:21:46;-3.30;75.90
1978;DHT22;989;53.016;8.346;2022-12-18T09:24:13;-3.20;77.90
1978;DHT22;989;53.016;8.346;2022-12-18T09:26:39;-3.10;79.00
1978;DHT22;989;53.016;8.346;2022-12-18T09:29:05;-3.10;80.70
1978;DHT22;989;53.016;8.346;2022-12-18T09:31:32;-3.00;81.30
1978;DHT22;989;53.016;8.346;2022-12-18T09:33:58;-3.00;80.30
1978;DHT22;989;53.016;8.346;2022-12-18T09:36:24;-2.90;81.30
1978;DHT22;989;53.016;8.346;2022-12-18T09:38:50;-2.80;80.60
1978;DHT22;989;53.016;8.346;2022-12-18T09:41:45;-2.70;83.00
1978;DHT22;989;53.016;8.346;2022-12-18T09:47:21;-2.50;79.60
1978;DHT22;989;53.016;8.346;2022-12-18T09:49:53;-2.50;79.50
1978;DHT22;989;53.016;8.346;2022-12-18T09:52:45;-2.30;87.20
1978;DHT22;989;53.016;8.346;2022-12-18T09:55:31;-2.30;83.30
1978;DHT22;989;53.016;8.346;2022-12-18T09:58:05;-2.20;83.90
1978;DHT22;989;53.016;8.346;2022-12-18T10:00:33;-2.20;82.10
1978;DHT22;989;53.016;8.346;2022-12-18T10:03:15;-2.10;83.90
1978;DHT22;989;53.016;8.346;2022-12-18T10:05:53;-2.10;76.60
1978;DHT22;989;53.016;8.346;2022-12-18T10:20:51;-1.90;76.60
1978;DHT22;989;53.016;8.346;2022-12-18T10:26:12;-1.80;73.00
1978;DHT22;989;53.016;8.346;2022-12-18T10:28:39;-1.70;76.20
1978;DHT22;989;53.016;8.346;2022-12-18T10:31:16;-1.70;72.00
1978;DHT22;989;53.016;8.346;2022-12-18T10:33:44;-1.60;76.60
1978;DHT22;989;53.016;8.346;2022-12-18T10:36:10;-1.60;74.10
1978;DHT22;989;53.016;8.346;2022-12-18T10:38:36;-1.60;75.30
1978;DHT22;989;53.016;8.346;2022-12-18T10:41:22;-1.50;74.90
1978;DHT22;989;53.016;8.346;2022-12-18T10:44:23;-1.40;77.20
1978;DHT22;989;53.016;8.346;2022-12-18T10:46:54;-1.40;70.30
1978;DHT22;989;53.016;8.346;2022-12-18T10:49:27;-1.30;75.20
1978;DHT22;989;53.016;8.346;2022-12-18T10:52:15;-1.20;77.40
1978;DHT22;989;53.016;8.346;2022-12-18T10:54:55;-1.10;77.70
1978;DHT22;989;53.016;8.346;2022-12-18T10:57:30;-0.90;77.20
1978;DHT22;989;53.016;8.346;2022-12-18T11:00:00;-1.00;72.50
1978;DHT22;989;53.016;8.346;2022-12-18T11:02:44;-0.90;75.20
1978;DHT22;989;53.016;8.346;2022-12-18T11:05:34;-0.90;70.50
1978;DHT22;989;53.016;8.346;2022-12-18T11:08:02;-0.90;70.20
1978;DHT22;989;53.016;8.346;2022-12-18T11:10:32;-0.70;75.30
1978;DHT22;989;53.016;8.346;2022-12-18T11:13:16;-0.70;71.50
1978;DHT22;989;53.016;8.346;2022-12-18T11:15:44;-0.60;67.00
1978;DHT22;989;53.016;8.346;2022-12-18T11:21:06;-0.30;59.00
1978;DHT22;989;53.016;8.346;2022-12-18T11:23:35;-0.10;57.00
1978;DHT22;989;53.016;8.346;2022-12-18T11:26:04;0.00;47.00
1978;DHT22;989;53.016;8.346;2022-12-18T11:28:54;0.10;40.10
1978;DHT22;989;53.016;8.346;2022-12-18T11:31:33;0.20;33.00
1978;DHT22;989;53.016;8.346;2022-12-18T11:34:22;0.30;26.50
1978;DHT22;989;53.016;8.346;2022-12-18T11:36:52;0.20;24.40
1978;DHT22;989;53.016;8.346;2022-12-18T11:39:44;0.00;19.20
1978;DHT22;989;53.016;8.346;2022-12-18T11:42:23;-0.10;21.40
1978;DHT22;989;53.016;8.346;2022-12-18T11:53:14;-0.20;42.10
1978;DHT22;989;53.016;8.346;2022-12-18T11:59:13;-0.20;42.40
1978;DHT22;989;53.016;8.346;2022-12-18T12:01:52;-0.20;40.70
1978;DHT22;989;53.016;8.346;2022-12-18T12:10:21;-0.20;40.60
1978;DHT22;989;53.016;8.346;2022-12-18T12:13:33;-0.20;41.80
1978;DHT22;989;53.016;8.346;2022-12-18T12:16:14;-0.10;43.60
1978;DHT22;989;53.016;8.346;2022-12-18T12:21:40;-0.10;40.80
1978;DHT22;989;53.016;8.346;2022-12-18T12:24:56;-0.10;38.70
1978;DHT22;989;53.016;8.346;2022-12-18T12:30:39;-0.10;39.80
1978;DHT22;989;53.016;8.346;2022-12-18T12:33:17;0.00;41.40
1978;DHT22;989;53.016;8.346;2022-12-18T12:35:59;0.00;39.70
1978;DHT22;989;53.016;8.346;2022-12-18T12:38:37;0.00;39.90
1978;DHT22;989;53.016;8.346;2022-12-18T12:41:11;0.00;40.00
1978;DHT22;989;53.016;8.346;2022-12-18T12:44:01;-0.10;38.50
1978;DHT22;989;53.016;8.346;2022-12-18T12:46:31;-0.10;37.20
1978;DHT22;989;53.016;8.346;2022-12-18T12:49:02;-0.10;39.90
1978;DHT22;989;53.016;8.346;2022-12-18T12:51:35;0.00;42.00
1978;DHT22;989;53.016;8.346;2022-12-18T12:54:13;0.00;33.70
1978;DHT22;989;53.016;8.346;2022-12-18T12:59:35;-0.10;30.70
1978;DHT22;989;53.016;8.346;2022-12-18T13:07:56;0.10;26.50
1978;DHT22;989;53.016;8.346;2022-12-18T13:10:34;0.10;24.90
1978;DHT22;989;53.016;8.346;2022-12-18T13:13:13;0.10;19.30
1978;DHT22;989;53.016;8.346;2022-12-18T13:15:49;0.00;14.90
1978;DHT22;989;53.016;8.346;2022-12-18T13:18:31;0.00;17.80
1978;DHT22;989;53.016;8.346;2022-12-18T13:33:42;0.00;19.40
1978;DHT22;989;53.016;8.346;2022-12-18T13:36:15;-0.10;19.60
1978;DHT22;989;53.016;8.346;2022-12-18T13:38:47;-0.20;19.00
1978;DHT22;989;53.016;8.346;2022-12-18T13:41:27;-0.20;19.00
1978;DHT22;989;53.016;8.346;2022-12-18T13:43:57;-0.20;19.00
1978;DHT22;989;53.016;8.346;2022-12-18T13:46:44;-0.20;20.30
1978;DHT22;989;53.016;8.346;2022-12-18T13:51:42;-0.30;15.60
1978;DHT22;989;53.016;8.346;2022-12-18T13:54:24;-0.30;17.10
1978;DHT22;989;53.016;8.346;2022-12-18T13:56:54;-0.30;15.10
1978;DHT22;989;53.016;8.346;2022-12-18T14:02:05;-0.40;9.60
1978;DHT22;989;53.016;8.346;2022-12-18T14:04:38;-0.30;14.10
1978;DHT22;989;53.016;8.346;2022-12-18T14:07:24;-0.30;14.10
1978;DHT22;989;53.016;8.346;2022-12-18T14:10:00;-0.30;13.30
1978;DHT22;989;53.016;8.346;2022-12-18T14:12:30;-0.40;11.00
1978;DHT22;989;53.016;8.346;2022-12-18T14:15:44;-0.40;13.90
1978;DHT22;989;53.016;8.346;2022-12-18T14:21:18;-0.40;9.80
1978;DHT22;989;53.016;8.346;2022-12-18T14:23:46;-0.40;10.30
1978;DHT22;989;53.016;8.346;2022-12-18T14:26:29;-0.40;7.30
1978;DHT22;989;53.016;8.346;2022-12-18T14:28:57;-0.40;4.30
1978;DHT22;989;53.016;8.346;2022-12-18T14:31:28;-0.40;3.40
1978;DHT22;989;53.016;8.346;2022-12-18T14:33:55;-0.40;4.30
1978;DHT22;989;53.016;8.346;2022-12-18T14:36:24;-0.50;1.00
1978;DHT22;989;53.016;8.346;2022-12-18T14:38:52;-0.50;1.00
1978;DHT22;989;53.016;8.346;2022-12-18T14:41:20;-0.60;1.00
1978;DHT22;989;53.016;8.346;2022-12-18T14:43:49;-0.60;1.00
1978;DHT22;989;53.016;8.346;2022-12-18T14:46:36;-0.60;1.00
1978;DHT22;989;53.016;8.346;2022-12-18T14:49:25;-0.70;1.00
1978;DHT22;989;53.016;8.346;2022-12-18T14:51:59;-0.70;1.00
1978;DHT22;989;53.016;8.346;2022-12-18T14:54:27;-0.80;1.00
1978;DHT22;989;53.016;8.346;2022-12-18T14:57:03;-0.90;1.00
1978;DHT22;989;53.016;8.346;2022-12-18T14:59:31;-0.90;1.00
1978;DHT22;989;53.016;8.346;2022-12-18T15:02:19;-0.80;1.00
1978;DHT22;989;53.016;8.346;2022-12-18T15:04:48;-0.90;1.00
1978;DHT22;989;53.016;8.346;2022-12-18T15:07:25;-0.90;1.00
1978;DHT22;989;53.016;8.346;2022-12-18T15:12:48;-0.80;1.00
1978;DHT22;989;53.016;8.346;2022-12-18T15:20:58;-0.80;1.00
1978;DHT22;989;53.016;8.346;2022-12-18T15:23:28;-0.80;1.00
1978;DHT22;989;53.016;8.346;2022-12-18T15:28:43;-0.80;1.00
1978;DHT22;989;53.016;8.346;2022-12-18T15:33:40;-0.70;1.00
1978;DHT22;989;53.016;8.346;2022-12-18T15:36:15;-0.70;1.00
1978;DHT22;989;53.016;8.346;2022-12-18T15:38:49;-0.70;1.00
1978;DHT22;989;53.016;8.346;2022-12-18T15:41:20;-0.70;1.00
1978;DHT22;989;53.016;8.346;2022-12-18T15:43:48;-0.70;1.00
1978;DHT22;989;53.016;8.346;2022-12-18T15:46:17;-0.70;1.00
1978;DHT22;989;53.016;8.346;2022-12-18T15:48:50;-0.70;1.00
1978;DHT22;989;53.016;8.346;2022-12-18T15:51:19;-0.60;1.00
1978;DHT22;989;53.016;8.346;2022-12-18T15:53:48;-0.60;1.00
1978;DHT22;989;53.016;8.346;2022-12-18T15:56:16;-0.60;1.00
1978;DHT22;989;53.016;8.346;2022-12-18T15:59:01;-0.60;1.00
1978;DHT22;989;53.016;8.346;2022-12-18T16:01:29;-0.60;1.00
1978;DHT22;989;53.016;8.346;2022-12-18T16:03:56;-0.60;1.00
1978;DHT22;989;53.016;8.346;2022-12-18T16:06:22;-0.60;1.00
1978;DHT22;989;53.016;8.346;2022-12-18T16:08:48;-0.50;1.00
1978;DHT22;989;53.016;8.346;2022-12-18T16:11:41;-0.60;1.00
1978;DHT22;989;53.016;8.346;2022-12-18T16:16:59;-0.50;1.00
1978;DHT22;989;53.016;8.346;2022-12-18T16:19:27;-0.50;1.00
1978;DHT22;989;53.016;8.346;2022-12-18T16:21:55;-0.50;1.00
1978;DHT22;989;53.016;8.346;2022-12-18T16:24:29;-0.50;1.00
1978;DHT22;989;53.016;8.346;2022-12-18T16:26:57;-0.50;1.00
1978;DHT22;989;53.016;8.346;2022-12-18T16:29:25;-0.60;1.00
1978;DHT22;989;53.016;8.346;2022-12-18T16:32:00;-0.60;1.00
1978;DHT22;989;53.016;8.346;2022-12-18T16:34:30;-0.60;1.00
1978;DHT22;989;53.016;8.346;2022-12-18T16:37:00;-0.60;1.00
1978;DHT22;989;53.016;8.346;2022-12-18T16:39:28;-0.60;1.00
1978;DHT22;989;53.016;8.346;2022-12-18T16:41:55;-0.60;1.00
1978;DHT22;989;53.016;8.346;2022-12-18T16:44:21;-0.50;1.00
1978;DHT22;989;53.016;8.346;2022-12-18T16:46:46;-0.50;1.00
1978;DHT22;989;53.016;8.346;2022-12-18T16:49:13;-0.50;1.00
1978;DHT22;989;53.016;8.346;2022-12-18T16:51:40;-0.50;1.00
1978;DHT22;989;53.016;8.346;2022-12-18T16:54:06;-0.50;1.00
1978;DHT22;989;53.016;8.346;2022-12-18T16:56:31;-0.50;1.00
1978;DHT22;989;53.016;8.346;2022-12-18T16:58:59;-0.40;1.00
1978;DHT22;989;53.016;8.346;2022-12-18T17:01:26;-0.40;1.00
1978;DHT22;989;53.016;8.346;2022-12-18T17:03:58;-0.30;1.00
1978;DHT22;989;53.016;8.346;2022-12-18T17:06:27;-0.30;1.00
1978;DHT22;989;53.016;8.346;2022-12-18T17:08:56;-0.30;1.00
1978;DHT22;989;53.016;8.346;2022-12-18T17:11:23;-0.20;1.00
1978;DHT22;989;53.016;8.346;2022-12-18T17:13:49;-0.20;1.00
1978;DHT22;989;53.016;8.346;2022-12-18T17:16:15;-0.20;1.00
1978;DHT22;989;53.016;8.346;2022-12-18T17:18:42;-0.20;1.00
1978;DHT22;989;53.016;8.346;2022-12-18T17:21:09;-0.10;1.00
1978;DHT22;989;53.016;8.346;2022-12-18T17:23:36;-0.10;1.00
1978;DHT22;989;53.016;8.346;2022-12-18T17:26:03;-0.10;1.00
1978;DHT22;989;53.016;8.346;2022-12-18T17:28:31;-0.10;1.00
1978;DHT22;989;53.016;8.346;2022-12-18T17:30:58;-0.10;1.00
1978;DHT22;989;53.016;8.346;2022-12-18T17:33:24;0.00;1.00
1978;DHT22;989;53.016;8.346;2022-12-18T17:35:50;0.00;1.00
1978;DHT22;989;53.016;8.346;2022-12-18T17:38:16;0.00;1.00
1978;DHT22;989;53.016;8.346;2022-12-18T17:40:41;0.00;1.00
1978;DHT22;989;53.016;8.346;2022-12-18T17:43:08;0.10;1.00
1978;DHT22;989;53.016;8.346;2022-12-18T17:45:36;0.10;1.00
1978;DHT22;989;53.016;8.346;2022-12-18T17:48:03;0.10;1.00
1978;DHT22;989;53.016;8.346;2022-12-18T17:50:30;0.10;1.00
1978;DHT22;989;53.016;8.346;2022-12-18T17:52:57;0.10;1.00
1978;DHT22;989;53.016;8.346;2022-12-18T17:55:23;0.10;1.00
1978;DHT22;989;53.016;8.346;2022-12-18T17:57:49;0.10;1.00
1978;DHT22;989;53.016;8.346;2022-12-18T18:00:15;0.20;1.00
1978;DHT22;989;53.016;8.346;2022-12-18T18:02:41;0.20;1.00
1978;DHT22;989;53.016;8.346;2022-12-18T18:05:07;0.10;1.00
1978;DHT22;989;53.016;8.346;2022-12-18T18:07:33;0.20;1.00
1978;DHT22;989;53.016;8.346;2022-12-18T18:09:59;0.20;1.00
1978;DHT22;989;53.016;8.346;2022-12-18T18:12:24;0.20;1.00
1978;DHT22;989;53.016;8.346;2022-12-18T18:15:09;0.20;1.00
1978;DHT22;989;53.016;8.346;2022-12-18T18:17:35;0.30;1.00
1978;DHT22;989;53.016;8.346;2022-12-18T18:20:01;0.20;1.00
1978;DHT22;989;53.016;8.346;2022-12-18T18:22:27;0.20;1.00
1978;DHT22;989;53.016;8.346;2022-12-18T18:24:53;0.30;1.00
1978;DHT22;989;53.016;8.346;2022-12-18T18:27:18;0.30;1.00
1978;DHT22;989;53.016;8.346;2022-12-18T18:29:44;0.30;1.00
1978;DHT22;989;53.016;8.346;2022-12-18T18:32:10;0.40;1.00
1978;DHT22;989;53.016;8.346;2022-12-18T18:34:35;0.40;1.00
1978;DHT22;989;53.016;8.346;2022-12-18T18:37:01;0.40;1.00
1978;DHT22;989;53.016;8.346;2022-12-18T18:39:28;0.40;1.00
1978;DHT22;989;53.016;8.346;2022-12-18T18:41:54;0.40;1.00